Shamrock — FAA8907 — position and weather

sailwx.info

Track history (hours):
 
Tides and Currents Weather Stations Pressure Air Temp Water Temp Dewpoint Dewpoint Depression Visibility Wind Speed Wind Dir Waves Ship Positions

Shamrock

Last reported at 2018-May-20 14:03 UTC. Time now 2018-May-20 17:51 UTC.
Position N 48°50' W 003°01'.

Length 12 m.

Type: Sailing vessel. MMSI: 227167240.

Date/timePositionNaut miles runAvg speedWind from/ knotsBaromVisibWave heightAir tempDewpointWater temp
2018-May-20 14:03N 48°50' W 003°01'1 4.3
2018-May-20 13:50N 48°50' W 003°00'1 2.7
2018-May-20 13:30N 48°50' W 002°59'1 1.5
2018-May-20 12:45N 48°50' W 002°57'2 7.1
2018-May-20 12:30N 48°49' W 002°56'5 3.5
2018-May-20 11:09N 48°44' W 002°54'0 0.2
2018-May-20 10:48N 48°44' W 002°54'1 1.8
2018-May-20 10:30N 48°44' W 002°53'1 0.8
2018-May-20 09:21N 48°43' W 002°53'2 4.4
2018-May-20 08:55N 48°42' W 002°51'3 0.2
2018-May-19 16:53N 48°39' W 002°49'1 3.5
2018-May-19 16:30N 48°40' W 002°50'3 4.9
2018-May-19 15:54N 48°43' W 002°52'2 4.0
2018-May-19 15:30N 48°44' W 002°54'1 1.3
2018-May-19 14:44N 48°44' W 002°55'1 2.6
2018-May-19 14:21N 48°45' W 002°55'3 0.9
2018-May-19 11:09N 48°47' W 002°59'0 0.2
2018-May-19 09:37N 48°47' W 002°59'  
Track history (hours):
 
Tides and Currents Weather Stations Pressure Air Temp Water Temp Dewpoint Dewpoint Depression Visibility Wind Speed Wind Dir Waves Ship Positions

Shamrock

Last reported at 2018-May-20 14:03 UTC. Time now 2018-May-20 17:51 UTC.
Position N 48°50' W 003°01'.

Length 12 m.

Type: Sailing vessel. MMSI: 227167240.

Date/timePositionNaut miles runAvg speedWind from/ knotsBaromVisibWave heightAir tempDewpointWater temp
2018-May-20 14:03N 48°50' W 003°01'1 4.3
2018-May-20 13:50N 48°50' W 003°00'1 2.7
2018-May-20 13:30N 48°50' W 002°59'1 1.5
2018-May-20 12:45N 48°50' W 002°57'2 7.1
2018-May-20 12:30N 48°49' W 002°56'5 3.5
2018-May-20 11:09N 48°44' W 002°54'0 0.2
2018-May-20 10:48N 48°44' W 002°54'1 1.8
2018-May-20 10:30N 48°44' W 002°53'1 0.8
2018-May-20 09:21N 48°43' W 002°53'2 4.4
2018-May-20 08:55N 48°42' W 002°51'3 0.2
2018-May-19 16:53N 48°39' W 002°49'1 3.5
2018-May-19 16:30N 48°40' W 002°50'3 4.9
2018-May-19 15:54N 48°43' W 002°52'2 4.0
2018-May-19 15:30N 48°44' W 002°54'1 1.3
2018-May-19 14:44N 48°44' W 002°55'1 2.6
2018-May-19 14:21N 48°45' W 002°55'3 0.9
2018-May-19 11:09N 48°47' W 002°59'0 0.2
2018-May-19 09:37N 48°47' W 002°59'  

Dump ship's entire track history